Time;durP1;ratioP1;P1;durP2;ratioP2;P2;SDS_P1;SDS_P2;PMS_P1;PMS_P2;Temp;Humidity;BMP_temperature;BMP_pressure;BME280_temperature;BME280_humidity;BME280_pressure;Samples;Min_cycle;Max_cycle;Signal;HPM_P1;HPM_P2
2021/06/15 00:01:09;;;;;;;2.53;2.33;;;;;;;;;;5141286;28;20559;-67
2021/06/15 00:03:37;;;;;;;2.80;2.60;;;;;;;;;;5127424;28;20298;-67
2021/06/15 00:06:05;;;;;;;3.50;2.10;;;;;;;;;;5141267;28;20609;-67
2021/06/15 00:08:34;;;;;;;2.77;2.00;;;;;;;;;;5140759;28;20204;-67
2021/06/15 00:11:02;;;;;;;2.60;2.40;;;;;;;;;;5140802;28;20250;-67
2021/06/15 00:13:30;;;;;;;2.67;2.30;;;;;;;;;;5140580;28;20214;-67
2021/06/15 00:15:58;;;;;;;2.77;2.30;;;;;;;;;;5141122;28;20252;-67
2021/06/15 00:18:26;;;;;;;3.23;2.50;;;;;;;;;;5140619;28;20331;-67
2021/06/15 00:20:53;;;;;;;2.60;2.40;;;;;;;;;;5140730;28;20200;-67
2021/06/15 00:23:21;;;;;;;2.20;1.97;;;;;;;;;;5139914;28;20246;-67
2021/06/15 00:25:50;;;;;;;2.50;2.30;;;;;;;;;;5140790;28;20319;-67
2021/06/15 00:28:19;;;;;;;2.63;2.13;;;;;;;;;;5141019;28;20667;-67
2021/06/15 00:30:47;;;;;;;5.13;2.53;;;;;;;;;;5135414;27;144139;-67
2021/06/15 00:33:14;;;;;;;3.30;2.17;;;;;;;;;;5141979;27;20657;-67
2021/06/15 00:35:42;;;;;;;2.73;2.27;;;;;;;;;;5142061;27;20281;-67
2021/06/15 00:38:10;;;;;;;2.67;2.10;;;;;;;;;;5141461;27;20256;-67
2021/06/15 00:40:38;;;;;;;2.43;2.23;;;;;;;;;;5141358;27;20260;-67
2021/06/15 00:43:07;;;;;;;3.97;2.20;;;;;;;;;;5141461;27;20282;-67
2021/06/15 00:45:34;;;;;;;2.50;2.30;;;;;;;;;;5141535;27;20279;-67
2021/06/15 00:48:02;;;;;;;2.30;2.10;;;;;;;;;;5141427;27;20208;-67
2021/06/15 00:50:31;;;;;;;4.27;2.27;;;;;;;;;;5141679;27;20207;-67
2021/06/15 00:52:58;;;;;;;3.13;2.10;;;;;;;;;;5141427;27;20227;-67
2021/06/15 00:55:27;;;;;;;2.30;2.10;;;;;;;;;;5141112;27;20201;-67
2021/06/15 00:57:54;;;;;;;2.90;2.10;;;;;;;;;;5141413;27;20303;-67
2021/06/15 01:00:23;;;;;;;2.50;1.60;;;;;;;;;;5140277;27;20258;-67
2021/06/15 01:02:51;;;;;;;2.07;1.93;;;;;;;;;;5141251;27;20279;-67
2021/06/15 01:05:19;;;;;;;2.03;1.83;;;;;;;;;;5141041;27;20233;-67
2021/06/15 01:07:50;;;;;;;2.00;1.90;;;;;;;;;;5141460;27;20543;-67
2021/06/15 01:10:22;;;;;;;2.37;2.10;;;;;;;;;;5141080;27;20203;-67
2021/06/15 01:12:56;;;;;;;2.43;2.20;;;;;;;;;;5139013;27;20245;-67
2021/06/15 01:15:28;;;;;;;2.20;2.00;;;;;;;;;;5140892;27;20251;-67
2021/06/15 01:17:57;;;;;;;3.07;2.10;;;;;;;;;;5141005;27;20210;-67
2021/06/15 01:20:26;;;;;;;1.77;1.67;;;;;;;;;;5140905;27;20202;-67
2021/06/15 01:23:05;;;;;;;2.53;1.93;;;;;;;;;;5137313;27;20261;-67
2021/06/15 01:25:37;;;;;;;3.73;1.77;;;;;;;;;;5138586;27;20232;-67
2021/06/15 01:28:09;;;;;;;2.93;2.57;;;;;;;;;;5140973;27;20561;-67
2021/06/15 01:30:40;;;;;;;2.60;1.90;;;;;;;;;;5138401;27;20202;-67
2021/06/15 01:33:09;;;;;;;1.60;1.50;;;;;;;;;;5134100;27;20280;-67
2021/06/15 01:35:38;;;;;;;2.80;2.00;;;;;;;;;;5140931;27;20656;-67
2021/06/15 01:38:07;;;;;;;3.33;2.50;;;;;;;;;;5140393;27;20239;-67
2021/06/15 01:40:38;;;;;;;2.10;1.90;;;;;;;;;;5140807;27;20230;-67
2021/06/15 01:43:10;;;;;;;2.47;2.00;;;;;;;;;;5140219;27;20221;-67
2021/06/15 01:45:40;;;;;;;2.37;1.83;;;;;;;;;;5140685;27;20229;-67
2021/06/15 01:48:11;;;;;;;2.33;2.17;;;;;;;;;;5140699;27;20243;-67
2021/06/15 01:50:41;;;;;;;4.60;1.83;;;;;;;;;;5140393;27;20202;-67
2021/06/15 01:53:09;;;;;;;2.00;1.80;;;;;;;;;;5139835;27;20220;-67
2021/06/15 01:55:38;;;;;;;2.10;1.90;;;;;;;;;;5140487;27;20641;-67
2021/06/15 01:58:06;;;;;;;1.90;1.80;;;;;;;;;;5140219;27;20546;-67
2021/06/15 02:00:36;;;;;;;2.63;1.97;;;;;;;;;;5139568;27;20631;-67
2021/06/15 02:03:05;;;;;;;1.90;1.80;;;;;;;;;;5140276;27;20232;-67
2021/06/15 02:05:36;;;;;;;2.03;1.90;;;;;;;;;;5140230;27;20226;-67
2021/06/15 02:08:05;;;;;;;2.30;2.10;;;;;;;;;;5139895;27;20198;-67
2021/06/15 02:10:34;;;;;;;3.23;2.00;;;;;;;;;;5139833;27;20248;-67
2021/06/15 02:13:02;;;;;;;1.80;1.70;;;;;;;;;;5135105;27;20224;-67
2021/06/15 02:15:31;;;;;;;2.30;1.60;;;;;;;;;;5140062;27;20644;-67
2021/06/15 02:18:00;;;;;;;2.20;1.80;;;;;;;;;;5140050;27;20215;-67
2021/06/15 02:20:31;;;;;;;2.20;1.70;;;;;;;;;;5139938;27;21634;-67
2021/06/15 02:23:01;;;;;;;2.27;1.90;;;;;;;;;;5139334;27;20221;-67
2021/06/15 02:25:29;;;;;;;3.23;2.20;;;;;;;;;;5139855;27;20744;-67
2021/06/15 02:27:57;;;;;;;2.13;1.70;;;;;;;;;;5139252;27;20199;-67
2021/06/15 02:30:26;;;;;;;1.63;1.50;;;;;;;;;;5139827;27;20208;-67
2021/06/15 02:32:55;;;;;;;1.70;1.60;;;;;;;;;;5138972;27;20228;-67
2021/06/15 02:35:25;;;;;;;1.80;1.70;;;;;;;;;;5139445;27;20196;-67
2021/06/15 02:37:55;;;;;;;2.47;1.80;;;;;;;;;;5139627;27;20649;-67
2021/06/15 02:40:23;;;;;;;2.97;1.87;;;;;;;;;;5139419;27;20221;-67
2021/06/15 02:42:51;;;;;;;1.70;1.60;;;;;;;;;;5139498;27;20228;-66
2021/06/15 02:45:20;;;;;;;3.10;1.60;;;;;;;;;;5139364;27;20211;-67
2021/06/15 02:47:49;;;;;;;1.73;1.63;;;;;;;;;;5139548;27;20204;-67
2021/06/15 02:50:17;;;;;;;1.60;1.50;;;;;;;;;;5139668;27;20634;-67
2021/06/15 02:52:48;;;;;;;3.40;1.90;;;;;;;;;;5139696;27;20617;-67
2021/06/15 02:55:18;;;;;;;1.67;1.57;;;;;;;;;;5139368;27;20662;-67
2021/06/15 02:57:47;;;;;;;5.03;1.97;;;;;;;;;;5138909;27;20563;-67
2021/06/15 03:00:15;;;;;;;2.53;1.80;;;;;;;;;;5139373;27;20257;-67
2021/06/15 03:02:43;;;;;;;3.83;2.00;;;;;;;;;;5139131;27;20227;-67
2021/06/15 03:05:14;;;;;;;1.63;1.53;;;;;;;;;;5138171;27;20257;-67
2021/06/15 03:07:42;;;;;;;2.47;2.10;;;;;;;;;;5138541;27;20192;-67
2021/06/15 03:10:12;;;;;;;2.37;2.10;;;;;;;;;;5138620;27;20192;-66
2021/06/15 03:12:44;;;;;;;3.43;1.93;;;;;;;;;;5131474;27;20254;-67
2021/06/15 03:15:13;;;;;;;2.33;1.70;;;;;;;;;;5139337;27;20208;-67
2021/06/15 03:17:48;;;;;;;2.47;2.27;;;;;;;;;;5139053;27;20659;-67
2021/06/15 03:20:17;;;;;;;1.90;1.80;;;;;;;;;;5139026;27;20210;-67
2021/06/15 03:22:46;;;;;;;4.53;1.73;;;;;;;;;;5138748;28;20224;-67
2021/06/15 03:25:18;;;;;;;3.03;2.00;;;;;;;;;;5136500;28;20250;-67
2021/06/15 03:27:48;;;;;;;2.17;1.97;;;;;;;;;;5138987;28;20323;-67
2021/06/15 03:30:17;;;;;;;2.00;1.90;;;;;;;;;;5138981;28;20210;-67
2021/06/15 03:32:47;;;;;;;1.60;1.50;;;;;;;;;;5138535;28;20241;-67
2021/06/15 03:35:15;;;;;;;1.83;1.73;;;;;;;;;;5131481;28;20200;-67
2021/06/15 03:37:49;;;;;;;1.70;1.60;;;;;;;;;;5138820;28;20257;-67
2021/06/15 03:40:18;;;;;;;1.97;1.67;;;;;;;;;;5138646;28;20228;-67
2021/06/15 03:42:46;;;;;;;5.37;1.80;;;;;;;;;;5138619;28;20222;-67
2021/06/15 03:45:15;;;;;;;1.70;1.60;;;;;;;;;;5138875;28;20206;-67
2021/06/15 03:47:44;;;;;;;2.63;1.87;;;;;;;;;;5138577;28;20223;-67
2021/06/15 03:50:13;;;;;;;3.23;1.93;;;;;;;;;;5138812;28;20263;-67
2021/06/15 03:52:42;;;;;;;3.47;1.87;;;;;;;;;;5138551;28;20228;-67
2021/06/15 03:55:11;;;;;;;1.70;1.60;;;;;;;;;;5138497;28;20208;-67
2021/06/15 03:57:42;;;;;;;3.33;1.87;;;;;;;;;;5138465;28;20656;-67
2021/06/15 04:00:12;;;;;;;2.70;1.87;;;;;;;;;;5138879;28;20202;-67
2021/06/15 04:02:40;;;;;;;2.83;1.80;;;;;;;;;;5138451;28;20276;-67
2021/06/15 04:05:09;;;;;;;1.60;1.50;;;;;;;;;;5127676;28;20214;-67
2021/06/15 04:07:38;;;;;;;2.43;1.73;;;;;;;;;;5136600;28;20253;-67
2021/06/15 04:10:07;;;;;;;1.93;1.80;;;;;;;;;;5138446;28;20210;-67
2021/06/15 04:12:35;;;;;;;2.60;1.90;;;;;;;;;;5134034;28;20225;-67
2021/06/15 04:15:05;;;;;;;6.87;2.13;;;;;;;;;;5138538;28;20573;-67
2021/06/15 04:17:36;;;;;;;3.33;2.10;;;;;;;;;;5138189;28;20257;-67
2021/06/15 04:20:04;;;;;;;2.90;2.23;;;;;;;;;;5133097;28;20205;-67
2021/06/15 04:22:34;;;;;;;2.33;1.70;;;;;;;;;;5138806;27;20589;-67
2021/06/15 04:25:05;;;;;;;2.40;1.60;;;;;;;;;;5141977;27;20236;-67
2021/06/15 04:27:34;;;;;;;1.80;1.70;;;;;;;;;;5142074;27;20286;-67
2021/06/15 04:30:02;;;;;;;1.60;1.50;;;;;;;;;;5141913;27;20214;-67
2021/06/15 04:32:34;;;;;;;1.80;1.70;;;;;;;;;;5141594;27;20229;-67
2021/06/15 04:35:05;;;;;;;2.37;1.83;;;;;;;;;;5141983;27;20212;-67
2021/06/15 04:37:34;;;;;;;1.90;1.67;;;;;;;;;;5141328;27;20254;-67
2021/06/15 04:40:05;;;;;;;3.97;1.87;;;;;;;;;;5141258;27;20236;-67
2021/06/15 04:42:37;;;;;;;3.93;2.00;;;;;;;;;;5141728;27;20241;-67
2021/06/15 04:45:05;;;;;;;3.47;2.23;;;;;;;;;;5140121;27;20257;-66
2021/06/15 04:47:37;;;;;;;3.10;2.43;;;;;;;;;;5135532;27;20222;-66
2021/06/15 04:50:10;;;;;;;2.50;2.30;;;;;;;;;;5139538;27;20205;-67
2021/06/15 04:52:39;;;;;;;2.33;2.10;;;;;;;;;;5138768;27;20216;-67
2021/06/15 04:55:07;;;;;;;2.97;2.00;;;;;;;;;;5138162;27;20206;-67
2021/06/15 04:57:38;;;;;;;2.30;1.97;;;;;;;;;;5131937;27;20192;-67
2021/06/15 05:00:06;;;;;;;2.57;1.87;;;;;;;;;;5141236;27;20204;-67
2021/06/15 05:02:36;;;;;;;2.97;1.70;;;;;;;;;;5140214;27;20220;-71
2021/06/15 05:05:05;;;;;;;3.97;2.17;;;;;;;;;;5139046;27;20198;-71
2021/06/15 05:07:32;;;;;;;2.13;1.93;;;;;;;;;;5141039;27;20225;-71
2021/06/15 05:10:02;;;;;;;2.67;1.87;;;;;;;;;;5125141;27;20267;-72
2021/06/15 05:12:33;;;;;;;2.63;2.43;;;;;;;;;;5137122;27;21129;-71
2021/06/15 05:15:02;;;;;;;1.73;1.60;;;;;;;;;;5133510;27;20208;-72
2021/06/15 05:17:31;;;;;;;4.07;2.00;;;;;;;;;;5139772;27;20207;-71
2021/06/15 05:20:00;;;;;;;1.97;1.80;;;;;;;;;;5139792;27;20213;-71
2021/06/15 05:22:28;;;;;;;2.73;2.10;;;;;;;;;;5139337;27;20633;-72
2021/06/15 05:24:57;;;;;;;6.27;1.90;;;;;;;;;;5138572;27;20203;-71
2021/06/15 05:27:26;;;;;;;4.20;1.80;;;;;;;;;;5137575;27;20238;-71
2021/06/15 05:29:54;;;;;;;2.50;1.97;;;;;;;;;;5140378;27;20257;-71
2021/06/15 05:32:26;;;;;;;2.20;1.77;;;;;;;;;;5139598;27;20239;-72
2021/06/15 05:34:54;;;;;;;2.77;1.70;;;;;;;;;;5136908;27;20203;-67
2021/06/15 05:37:24;;;;;;;6.50;1.90;;;;;;;;;;5140983;27;20232;-67
2021/06/15 05:39:51;;;;;;;3.80;2.60;;;;;;;;;;5137548;27;20207;-68
2021/06/15 05:42:19;;;;;;;2.73;2.17;;;;;;;;;;5140148;27;20220;-70
2021/06/15 05:44:47;;;;;;;2.60;1.97;;;;;;;;;;5139993;27;20257;-68
2021/06/15 05:47:15;;;;;;;3.43;1.97;;;;;;;;;;5139632;27;20216;-69
2021/06/15 05:49:42;;;;;;;5.43;1.80;;;;;;;;;;5138510;27;20203;-68
2021/06/15 05:52:12;;;;;;;4.80;1.80;;;;;;;;;;5139689;27;20220;-69
2021/06/15 05:54:41;;;;;;;6.53;2.03;;;;;;;;;;5138287;27;20228;-69
2021/06/15 05:57:09;;;;;;;2.17;1.97;;;;;;;;;;5138816;27;20550;-69
2021/06/15 05:59:37;;;;;;;3.67;1.80;;;;;;;;;;5140226;27;20248;-69
2021/06/15 06:02:06;;;;;;;2.83;1.83;;;;;;;;;;5137294;27;20231;-69
2021/06/15 06:04:36;;;;;;;3.93;1.90;;;;;;;;;;5138415;27;20203;-69
2021/06/15 06:09:52;;;;;;;2.87;1.90;;;;;;;;;;5139092;27;20601;-69
2021/06/15 06:12:20;;;;;;;2.67;2.10;;;;;;;;;;5139239;27;20218;-69
2021/06/15 06:14:48;;;;;;;1.80;1.70;;;;;;;;;;5139092;27;20214;-69
2021/06/15 06:17:15;;;;;;;3.30;1.80;;;;;;;;;;5140067;27;20728;-69
2021/06/15 06:20:03;;;;;;;2.40;1.67;;;;;;;;;;5130931;27;20212;-69
2021/06/15 06:22:31;;;;;;;5.23;2.23;;;;;;;;;;5136483;27;20227;-69
2021/06/15 06:25:02;;;;;;;6.00;1.90;;;;;;;;;;5137701;27;20255;-69
2021/06/15 06:27:29;;;;;;;5.93;2.20;;;;;;;;;;5139687;27;20324;-69
2021/06/15 06:29:57;;;;;;;7.77;2.00;;;;;;;;;;5138697;27;20249;-69
2021/06/15 06:32:25;;;;;;;4.13;1.77;;;;;;;;;;5139285;27;20276;-69
2021/06/15 06:34:53;;;;;;;7.50;1.90;;;;;;;;;;5138866;27;20536;-69
2021/06/15 06:37:20;;;;;;;2.77;1.73;;;;;;;;;;5139657;27;20218;-69
2021/06/15 06:39:48;;;;;;;2.40;2.13;;;;;;;;;;5138410;27;20200;-69
2021/06/15 06:42:19;;;;;;;6.30;2.00;;;;;;;;;;5137919;27;20223;-69
2021/06/15 06:44:46;;;;;;;3.17;1.80;;;;;;;;;;5139566;27;20210;-69
2021/06/15 06:47:17;;;;;;;4.20;2.00;;;;;;;;;;5138207;27;20200;-69
2021/06/15 06:49:45;;;;;;;5.20;2.00;;;;;;;;;;5136825;27;20283;-69
2021/06/15 06:52:12;;;;;;;6.13;2.53;;;;;;;;;;5134899;27;20223;-68
2021/06/15 06:54:40;;;;;;;3.80;2.10;;;;;;;;;;5138250;27;20206;-68
2021/06/15 06:57:09;;;;;;;4.57;1.80;;;;;;;;;;5139192;27;20204;-69
2021/06/15 06:59:38;;;;;;;7.57;2.53;;;;;;;;;;5138194;27;20193;-68
2021/06/15 07:02:05;;;;;;;2.83;1.77;;;;;;;;;;5139184;27;20228;-68
2021/06/15 07:04:33;;;;;;;8.53;2.10;;;;;;;;;;5137422;27;20201;-68
2021/06/15 07:07:01;;;;;;;2.23;1.60;;;;;;;;;;5138645;27;20651;-68
2021/06/15 07:09:28;;;;;;;3.17;1.80;;;;;;;;;;5136217;27;20218;-68
2021/06/15 07:11:56;;;;;;;2.50;2.00;;;;;;;;;;5138013;27;20225;-69
2021/06/15 07:14:24;;;;;;;3.67;2.17;;;;;;;;;;5139213;27;20216;-68
2021/06/15 07:16:53;;;;;;;1.70;1.60;;;;;;;;;;5138360;27;20251;-68
2021/06/15 07:19:21;;;;;;;4.70;2.03;;;;;;;;;;5139043;27;20239;-68
2021/06/15 07:21:49;;;;;;;4.27;2.37;;;;;;;;;;5136238;27;20273;-68
2021/06/15 07:24:22;;;;;;;5.33;2.13;;;;;;;;;;5137443;27;20210;-68
2021/06/15 07:26:50;;;;;;;8.60;1.93;;;;;;;;;;5137627;28;20552;-69
2021/06/15 07:29:17;;;;;;;6.33;2.00;;;;;;;;;;5138946;28;20230;-69
2021/06/15 07:31:45;;;;;;;3.57;1.97;;;;;;;;;;5137680;28;20233;-69
2021/06/15 07:34:14;;;;;;;8.37;2.13;;;;;;;;;;5134648;28;20246;-68
2021/06/15 07:36:42;;;;;;;3.50;1.90;;;;;;;;;;5138870;28;20695;-68
2021/06/15 07:39:10;;;;;;;3.27;2.30;;;;;;;;;;5137816;28;20558;-69
2021/06/15 07:41:38;;;;;;;5.20;2.20;;;;;;;;;;5136707;27;20696;-69
2021/06/15 07:44:06;;;;;;;3.20;1.77;;;;;;;;;;5138878;28;20202;-68
2021/06/15 07:46:34;;;;;;;1.70;1.60;;;;;;;;;;5137902;28;20201;-68
2021/06/15 07:49:02;;;;;;;5.20;1.73;;;;;;;;;;5136704;28;20688;-68
2021/06/15 07:51:31;;;;;;;2.17;1.97;;;;;;;;;;5136901;28;20260;-69
2021/06/15 07:53:59;;;;;;;1.80;1.70;;;;;;;;;;5137444;28;20197;-68
2021/06/15 07:56:26;;;;;;;2.27;1.97;;;;;;;;;;5137780;27;20254;-69
2021/06/15 07:58:54;;;;;;;3.33;2.00;;;;;;;;;;5141747;27;20595;-69
2021/06/15 08:01:22;;;;;;;3.30;1.73;;;;;;;;;;5138185;27;20663;-69
2021/06/15 08:03:49;;;;;;;3.90;1.77;;;;;;;;;;5142370;27;20242;-68
2021/06/15 08:06:17;;;;;;;3.37;1.80;;;;;;;;;;5141437;27;20197;-69
2021/06/15 08:08:46;;;;;;;2.63;1.83;;;;;;;;;;5141302;27;20227;-69
2021/06/15 08:11:14;;;;;;;3.23;1.90;;;;;;;;;;5142660;27;20603;-69
2021/06/15 08:13:42;;;;;;;1.80;1.70;;;;;;;;;;5140757;27;20275;-68
2021/06/15 08:16:10;;;;;;;2.50;2.20;;;;;;;;;;5141306;27;20198;-68
2021/06/15 08:18:37;;;;;;;2.37;1.87;;;;;;;;;;5142147;27;20205;-68
2021/06/15 08:21:05;;;;;;;2.50;1.67;;;;;;;;;;5140522;27;20210;-68
2021/06/15 08:23:33;;;;;;;6.57;2.27;;;;;;;;;;5140173;27;20211;-69
2021/06/15 08:26:04;;;;;;;3.20;2.27;;;;;;;;;;5141208;27;20204;-68
2021/06/15 08:28:31;;;;;;;2.77;1.80;;;;;;;;;;5141042;27;20722;-69
2021/06/15 08:30:59;;;;;;;6.40;2.63;;;;;;;;;;5141776;27;20242;-69
2021/06/15 08:33:27;;;;;;;6.07;2.20;;;;;;;;;;5140868;27;20212;-69
2021/06/15 08:35:55;;;;;;;4.13;2.30;;;;;;;;;;5140090;27;20222;-68
2021/06/15 08:38:22;;;;;;;3.70;1.97;;;;;;;;;;5141644;27;20218;-68
2021/06/15 08:40:51;;;;;;;4.27;2.10;;;;;;;;;;5140395;27;20198;-67
2021/06/15 08:43:20;;;;;;;2.97;1.80;;;;;;;;;;5140203;27;20218;-68
2021/06/15 08:45:48;;;;;;;5.73;1.80;;;;;;;;;;5141590;27;20258;-68
2021/06/15 08:48:16;;;;;;;2.43;1.83;;;;;;;;;;5140496;27;20208;-67
2021/06/15 08:50:46;;;;;;;3.23;1.80;;;;;;;;;;5140035;27;20249;-67
2021/06/15 08:53:14;;;;;;;3.70;1.80;;;;;;;;;;5138931;27;20225;-69
2021/06/15 08:55:47;;;;;;;1.93;1.70;;;;;;;;;;5138833;27;20203;-67
2021/06/15 08:58:31;;;;;;;6.57;2.40;;;;;;;;;;5140504;27;20229;-68
2021/06/15 09:00:59;;;;;;;4.23;1.80;;;;;;;;;;5141600;27;20207;-68
2021/06/15 09:03:27;;;;;;;2.27;1.90;;;;;;;;;;5140334;27;20242;-69
2021/06/15 09:05:56;;;;;;;3.73;1.80;;;;;;;;;;5141223;27;20211;-68
2021/06/15 09:08:23;;;;;;;2.70;2.07;;;;;;;;;;5140129;27;20605;-68
2021/06/15 09:10:51;;;;;;;1.77;1.67;;;;;;;;;;5140464;27;20222;-67
2021/06/15 09:13:37;;;;;;;2.13;1.93;;;;;;;;;;5139212;27;20258;-67
2021/06/15 09:16:22;;;;;;;4.70;2.37;;;;;;;;;;5140698;27;20600;-67
2021/06/15 09:18:50;;;;;;;2.63;2.00;;;;;;;;;;5141210;27;20584;-68
2021/06/15 09:21:37;;;;;;;2.30;2.00;;;;;;;;;;5137793;27;20254;-68
2021/06/15 09:24:06;;;;;;;4.10;1.70;;;;;;;;;;5139397;27;20207;-68
2021/06/15 09:26:52;;;;;;;3.10;2.20;;;;;;;;;;5135264;27;20200;-68
2021/06/15 09:29:20;;;;;;;1.93;1.80;;;;;;;;;;5140218;27;20247;-68
2021/06/15 09:31:55;;;;;;;2.17;1.93;;;;;;;;;;5140661;27;20288;-68
2021/06/15 09:34:23;;;;;;;3.27;2.10;;;;;;;;;;5128289;27;20202;-68
2021/06/15 09:36:53;;;;;;;5.53;2.03;;;;;;;;;;5139841;27;20604;-67
2021/06/15 09:39:21;;;;;;;4.73;1.83;;;;;;;;;;5140523;27;20260;-68
2021/06/15 09:41:49;;;;;;;6.10;2.37;;;;;;;;;;5139359;27;20221;-67
2021/06/15 09:44:17;;;;;;;2.77;1.70;;;;;;;;;;5139187;27;20714;-68
2021/06/15 09:46:45;;;;;;;3.53;1.70;;;;;;;;;;5140292;27;20225;-67
2021/06/15 09:49:26;;;;;;;2.30;1.70;;;;;;;;;;5139781;27;20707;-68
2021/06/15 09:52:08;;;;;;;2.17;1.93;;;;;;;;;;5139752;27;20221;-68
2021/06/15 09:54:39;;;;;;;4.40;2.25;;;;;;;;;;5138099;27;20202;-71
2021/06/15 09:57:09;;;;;;;4.05;1.65;;;;;;;;;;5137865;27;20212;-67
2021/06/15 09:59:36;;;;;;;3.30;1.90;;;;;;;;;;5140294;27;20200;-68
2021/06/15 10:02:04;;;;;;;1.80;1.70;;;;;;;;;;5139455;27;20266;-68
2021/06/15 10:04:33;;;;;;;2.88;1.83;;;;;;;;;;5139042;27;20202;-67
2021/06/15 10:07:01;;;;;;;3.38;1.95;;;;;;;;;;5140339;27;20201;-67
2021/06/15 10:09:29;;;;;;;5.22;1.70;;;;;;;;;;5138693;27;20226;-67
2021/06/15 10:11:59;;;;;;;3.47;2.10;;;;;;;;;;5139291;27;20220;-69
2021/06/15 10:14:27;;;;;;;4.63;2.08;;;;;;;;;;5136967;27;20199;-69
2021/06/15 10:16:56;;;;;;;1.88;1.70;;;;;;;;;;5127074;27;20206;-68
2021/06/15 10:19:24;;;;;;;3.28;1.58;;;;;;;;;;5138257;27;20261;-69
2021/06/15 10:21:54;;;;;;;3.42;1.98;;;;;;;;;;5138531;27;20219;-67
2021/06/15 10:24:23;;;;;;;2.05;1.80;;;;;;;;;;5137235;27;20264;-67
2021/06/15 10:27:03;;;;;;;2.40;1.80;;;;;;;;;;5137454;27;20205;-68
2021/06/15 10:29:30;;;;;;;5.95;1.70;;;;;;;;;;5139742;27;20244;-68
2021/06/15 10:31:59;;;;;;;7.85;1.48;;;;;;;;;;5138708;27;20267;-68
2021/06/15 10:34:46;;;;;;;4.15;2.15;;;;;;;;;;5138635;27;20210;-68
2021/06/15 10:37:29;;;;;;;1.75;1.52;;;;;;;;;;5136826;27;20207;-68
2021/06/15 10:39:58;;;;;;;2.17;1.35;;;;;;;;;;5137511;27;20199;-68
2021/06/15 10:42:26;;;;;;;3.53;2.08;;;;;;;;;;5139729;27;20227;-68
2021/06/15 10:45:09;;;;;;;1.80;1.70;;;;;;;;;;5136954;27;20196;-68
2021/06/15 10:47:37;;;;;;;3.17;1.75;;;;;;;;;;5138587;27;20204;-68
2021/06/15 10:50:05;;;;;;;6.60;1.98;;;;;;;;;;5136448;27;20218;-68
2021/06/15 10:53:04;;;;;;;2.40;1.42;;;;;;;;;;5125920;27;20296;-68
2021/06/15 10:55:44;;;;;;;3.40;1.77;;;;;;;;;;5135632;27;20207;-68
2021/06/15 10:58:12;;;;;;;3.40;1.87;;;;;;;;;;5139144;27;20206;-69
2021/06/15 11:00:44;;;;;;;2.03;1.83;;;;;;;;;;5138618;27;20225;-68
2021/06/15 11:03:22;;;;;;;2.30;1.38;;;;;;;;;;5138177;27;20794;-66
2021/06/15 11:05:54;;;;;;;3.47;1.98;;;;;;;;;;5138263;27;20232;-67
2021/06/15 11:08:22;;;;;;;2.03;1.90;;;;;;;;;;5138305;27;20255;-67
2021/06/15 11:10:53;;;;;;;1.77;1.63;;;;;;;;;;5138847;27;20271;-66
2021/06/15 11:13:39;;;;;;;1.90;1.70;;;;;;;;;;5136583;27;20320;-67
2021/06/15 11:16:06;;;;;;;2.53;1.70;;;;;;;;;;5137888;27;20205;-68
2021/06/15 11:18:34;;;;;;;1.90;1.80;;;;;;;;;;5139014;27;20209;-67
2021/06/15 11:21:17;;;;;;;2.28;1.90;;;;;;;;;;5136006;27;20195;-67
2021/06/15 11:23:45;;;;;;;2.38;1.95;;;;;;;;;;5134477;27;20197;-67
2021/06/15 11:26:15;;;;;;;3.95;1.80;;;;;;;;;;5136775;28;20196;-67
2021/06/15 11:28:44;;;;;;;4.70;1.60;;;;;;;;;;5138630;28;20252;-67
2021/06/15 11:31:31;;;;;;;2.97;1.90;;;;;;;;;;5138474;27;20230;-69
2021/06/15 11:34:15;;;;;;;5.82;2.28;;;;;;;;;;5143323;27;20209;-66
2021/06/15 11:36:54;;;;;;;4.07;1.70;;;;;;;;;;5140504;27;20261;-68
2021/06/15 11:39:30;;;;;;;2.28;1.55;;;;;;;;;;5142193;27;20202;-67
2021/06/15 11:42:22;;;;;;;4.17;1.70;;;;;;;;;;5142809;27;20219;-66
2021/06/15 11:44:56;;;;;;;3.17;1.83;;;;;;;;;;5139980;27;20207;-66
2021/06/15 11:47:24;;;;;;;4.40;1.73;;;;;;;;;;5138970;27;20197;-65
2021/06/15 11:50:10;;;;;;;4.07;1.83;;;;;;;;;;5140193;27;20201;-65
2021/06/15 11:52:39;;;;;;;2.03;1.83;;;;;;;;;;5125796;27;20738;-65
2021/06/15 11:55:07;;;;;;;3.20;1.85;;;;;;;;;;5132873;27;20203;-66
2021/06/15 11:57:37;;;;;;;1.63;1.53;;;;;;;;;;5142453;27;20248;-67
2021/06/15 12:00:06;;;;;;;2.90;1.85;;;;;;;;;;5140282;27;20199;-67
2021/06/15 12:02:37;;;;;;;4.50;2.42;;;;;;;;;;5142588;27;20225;-66
2021/06/15 12:05:08;;;;;;;5.95;1.77;;;;;;;;;;5139653;27;20641;-71
2021/06/15 12:07:38;;;;;;;1.95;1.80;;;;;;;;;;5141884;27;20200;-69
2021/06/15 12:10:07;;;;;;;1.65;1.42;;;;;;;;;;5141422;27;20203;-67
2021/06/15 12:12:54;;;;;;;2.95;1.85;;;;;;;;;;5137836;27;20223;-67
2021/06/15 12:15:26;;;;;;;2.28;1.80;;;;;;;;;;5139215;27;20222;-68
2021/06/15 12:17:55;;;;;;;3.28;1.75;;;;;;;;;;5141549;27;20198;-67
2021/06/15 12:20:23;;;;;;;1.60;1.50;;;;;;;;;;5140057;27;20205;-69
2021/06/15 12:22:51;;;;;;;2.17;1.88;;;;;;;;;;5142060;27;20698;-69
2021/06/15 12:25:26;;;;;;;1.58;1.48;;;;;;;;;;5141082;27;20200;-69
2021/06/15 12:28:07;;;;;;;3.38;1.73;;;;;;;;;;5142150;27;20209;-69
2021/06/15 12:30:39;;;;;;;2.22;1.88;;;;;;;;;;5140391;27;20207;-68
2021/06/15 12:33:07;;;;;;;2.00;1.80;;;;;;;;;;5136470;27;20255;-69
2021/06/15 12:35:35;;;;;;;1.75;1.65;;;;;;;;;;5139684;27;20256;-68
2021/06/15 12:38:09;;;;;;;4.18;1.73;;;;;;;;;;5141106;27;20209;-66
2021/06/15 12:40:37;;;;;;;5.05;2.15;;;;;;;;;;5139400;27;20212;-70
2021/06/15 12:43:05;;;;;;;1.98;1.60;;;;;;;;;;5133439;27;20256;-70
2021/06/15 12:45:33;;;;;;;3.42;1.65;;;;;;;;;;5140769;27;20652;-71
2021/06/15 12:48:17;;;;;;;2.72;1.83;;;;;;;;;;5141232;27;20206;-70
2021/06/15 12:50:45;;;;;;;2.20;1.80;;;;;;;;;;5138903;27;20201;-71
2021/06/15 12:53:13;;;;;;;3.55;2.25;;;;;;;;;;5141068;27;20245;-71
2021/06/15 12:55:44;;;;;;;1.77;1.50;;;;;;;;;;5139782;27;20203;-69
2021/06/15 12:58:12;;;;;;;2.53;1.70;;;;;;;;;;5133086;27;20218;-70
2021/06/15 13:00:43;;;;;;;3.75;1.70;;;;;;;;;;5140397;27;20695;-70
2021/06/15 13:03:13;;;;;;;3.85;1.60;;;;;;;;;;5138741;27;20280;-69
2021/06/15 13:05:41;;;;;;;3.05;1.52;;;;;;;;;;5140393;27;20203;-70
2021/06/15 13:08:09;;;;;;;1.85;1.70;;;;;;;;;;5138993;27;20203;-69
2021/06/15 13:10:38;;;;;;;4.18;1.63;;;;;;;;;;5141176;27;20572;-69
2021/06/15 13:13:14;;;;;;;1.77;1.67;;;;;;;;;;5138883;27;20215;-69
2021/06/15 13:15:42;;;;;;;2.13;1.60;;;;;;;;;;5140634;27;20255;-70
2021/06/15 13:18:11;;;;;;;2.95;1.55;;;;;;;;;;5139432;27;20241;-70
2021/06/15 13:20:40;;;;;;;2.65;2.20;;;;;;;;;;5139597;27;20253;-71
2021/06/15 13:23:17;;;;;;;4.35;2.33;;;;;;;;;;5139521;27;20220;-70
2021/06/15 13:25:45;;;;;;;2.70;1.40;;;;;;;;;;5140566;27;20206;-70
2021/06/15 13:28:19;;;;;;;4.38;2.50;;;;;;;;;;5139429;27;20231;-70
2021/06/15 13:30:46;;;;;;;3.17;2.15;;;;;;;;;;5133245;27;20196;-70
2021/06/15 13:33:15;;;;;;;2.83;1.92;;;;;;;;;;5139416;27;20224;-70
2021/06/15 13:35:44;;;;;;;3.03;1.70;;;;;;;;;;5138784;27;20207;-70
2021/06/15 13:38:17;;;;;;;2.90;1.63;;;;;;;;;;5139566;27;20204;-69
2021/06/15 13:40:46;;;;;;;1.92;1.52;;;;;;;;;;5140280;27;20207;-70
2021/06/15 13:43:24;;;;;;;2.55;1.50;;;;;;;;;;5138590;27;20223;-71
2021/06/15 13:45:53;;;;;;;4.43;1.88;;;;;;;;;;5138562;27;20207;-72
2021/06/15 13:48:37;;;;;;;1.85;1.75;;;;;;;;;;5125955;27;20207;-70
2021/06/15 13:51:09;;;;;;;2.92;1.90;;;;;;;;;;5134557;27;20210;-70
2021/06/15 13:53:37;;;;;;;2.60;1.40;;;;;;;;;;5136800;27;20196;-70
2021/06/15 13:56:04;;;;;;;2.08;1.60;;;;;;;;;;5138376;27;20203;-70
2021/06/15 13:58:32;;;;;;;4.22;1.70;;;;;;;;;;5140144;27;20647;-70
2021/06/15 14:01:00;;;;;;;1.65;1.40;;;;;;;;;;5137586;27;20695;-70
2021/06/15 14:03:28;;;;;;;2.45;1.60;;;;;;;;;;5139199;27;20706;-70
2021/06/15 14:05:56;;;;;;;3.05;1.63;;;;;;;;;;5136933;27;20195;-68
2021/06/15 14:08:28;;;;;;;2.85;1.67;;;;;;;;;;5132141;27;20200;-67
2021/06/15 14:10:56;;;;;;;2.95;1.73;;;;;;;;;;5140148;27;20204;-68
2021/06/15 14:13:24;;;;;;;3.80;1.95;;;;;;;;;;5137002;27;20678;-68
2021/06/15 14:15:52;;;;;;;1.70;1.50;;;;;;;;;;5140091;27;20203;-68
2021/06/15 14:18:19;;;;;;;2.55;1.50;;;;;;;;;;5140164;27;20253;-68
2021/06/15 14:20:47;;;;;;;2.58;1.40;;;;;;;;;;5139795;27;20204;-68
2021/06/15 14:23:15;;;;;;;3.47;1.40;;;;;;;;;;5139084;27;20219;-68
2021/06/15 14:25:44;;;;;;;3.13;1.30;;;;;;;;;;5139123;27;20265;-68
2021/06/15 14:28:12;;;;;;;3.72;1.98;;;;;;;;;;5139299;27;20208;-68
2021/06/15 14:30:44;;;;;;;2.47;1.75;;;;;;;;;;5139724;27;20207;-68
2021/06/15 14:33:12;;;;;;;1.73;1.63;;;;;;;;;;5139070;27;20583;-68
2021/06/15 14:35:40;;;;;;;3.35;1.60;;;;;;;;;;5139498;27;20215;-67
2021/06/15 14:38:07;;;;;;;3.35;1.63;;;;;;;;;;5139260;27;20711;-68
2021/06/15 14:40:35;;;;;;;2.10;1.90;;;;;;;;;;5139371;27;20199;-68
2021/06/15 14:43:04;;;;;;;1.70;1.60;;;;;;;;;;5139171;27;20739;-68
2021/06/15 14:45:32;;;;;;;1.85;1.75;;;;;;;;;;5139089;27;20203;-68
2021/06/15 14:48:00;;;;;;;1.30;1.20;;;;;;;;;;5139104;27;20215;-68
2021/06/15 14:50:28;;;;;;;1.67;1.35;;;;;;;;;;5139422;27;20608;-68
2021/06/15 14:52:55;;;;;;;1.60;1.50;;;;;;;;;;5138449;27;20227;-68
2021/06/15 14:55:24;;;;;;;3.03;1.75;;;;;;;;;;5138674;27;20200;-68
2021/06/15 14:57:52;;;;;;;2.05;1.65;;;;;;;;;;5138774;27;20212;-67
2021/06/15 15:00:22;;;;;;;3.30;1.55;;;;;;;;;;5137371;27;20602;-67
2021/06/15 15:02:49;;;;;;;2.00;1.45;;;;;;;;;;5131789;27;20272;-68